sensor_id;sensor_type;location;lat;lon;timestamp;P1;durP1;ratioP1;P2;durP2;ratioP2
12151;SDS011;6139;51.274;7.128;2022-11-15T00:00:15;14.50;;;7.72;;
12151;SDS011;6139;51.274;7.128;2022-11-15T00:01:36;9.68;;;8.10;;
12151;SDS011;6139;51.274;7.128;2022-11-15T00:02:57;11.45;;;7.85;;
12151;SDS011;6139;51.274;7.128;2022-11-15T00:04:19;10.15;;;7.97;;
12151;SDS011;6139;51.274;7.128;2022-11-15T00:05:39;10.43;;;7.90;;
12151;SDS011;6139;51.274;7.128;2022-11-15T00:06:59;10.07;;;8.05;;
12151;SDS011;6139;51.274;7.128;2022-11-15T00:08:20;11.97;;;7.90;;
12151;SDS011;6139;51.274;7.128;2022-11-15T00:09:39;9.27;;;7.15;;
12151;SDS011;6139;51.274;7.128;2022-11-15T00:11:00;10.05;;;7.78;;
12151;SDS011;6139;51.274;7.128;2022-11-15T00:12:21;9.95;;;7.15;;
12151;SDS011;6139;51.274;7.128;2022-11-15T00:13:42;9.75;;;7.85;;
12151;SDS011;6139;51.274;7.128;2022-11-15T00:15:02;14.38;;;7.85;;
12151;SDS011;6139;51.274;7.128;2022-11-15T00:16:23;8.63;;;7.07;;
12151;SDS011;6139;51.274;7.128;2022-11-15T00:17:44;10.10;;;7.80;;
12151;SDS011;6139;51.274;7.128;2022-11-15T00:19:07;8.52;;;7.05;;
12151;SDS011;6139;51.274;7.128;2022-11-15T00:20:29;8.68;;;7.60;;
12151;SDS011;6139;51.274;7.128;2022-11-15T00:21:49;8.45;;;6.82;;
12151;SDS011;6139;51.274;7.128;2022-11-15T00:23:09;9.23;;;6.95;;
12151;SDS011;6139;51.274;7.128;2022-11-15T00:24:30;9.07;;;7.68;;
12151;SDS011;6139;51.274;7.128;2022-11-15T00:26:00;12.77;;;7.60;;
12151;SDS011;6139;51.274;7.128;2022-11-15T00:27:19;9.05;;;7.00;;
12151;SDS011;6139;51.274;7.128;2022-11-15T00:28:40;8.77;;;7.28;;
12151;SDS011;6139;51.274;7.128;2022-11-15T00:30:01;10.90;;;7.47;;
12151;SDS011;6139;51.274;7.128;2022-11-15T00:31:21;10.13;;;7.03;;
12151;SDS011;6139;51.274;7.128;2022-11-15T00:32:42;9.70;;;7.85;;
12151;SDS011;6139;51.274;7.128;2022-11-15T00:34:01;8.05;;;7.13;;
12151;SDS011;6139;51.274;7.128;2022-11-15T00:35:21;7.82;;;7.03;;
12151;SDS011;6139;51.274;7.128;2022-11-15T00:36:43;8.98;;;7.60;;
12151;SDS011;6139;51.274;7.128;2022-11-15T00:38:03;11.60;;;7.32;;
12151;SDS011;6139;51.274;7.128;2022-11-15T00:39:23;10.40;;;7.35;;
12151;SDS011;6139;51.274;7.128;2022-11-15T00:40:43;11.20;;;7.97;;
12151;SDS011;6139;51.274;7.128;2022-11-15T00:42:03;10.80;;;7.97;;
12151;SDS011;6139;51.274;7.128;2022-11-15T00:43:24;8.48;;;7.40;;
12151;SDS011;6139;51.274;7.128;2022-11-15T00:44:43;9.07;;;7.72;;
12151;SDS011;6139;51.274;7.128;2022-11-15T00:46:04;8.98;;;7.93;;
12151;SDS011;6139;51.274;7.128;2022-11-15T00:47:27;10.38;;;7.82;;
12151;SDS011;6139;51.274;7.128;2022-11-15T00:48:47;10.18;;;8.02;;
12151;SDS011;6139;51.274;7.128;2022-11-15T00:50:07;12.48;;;7.60;;
12151;SDS011;6139;51.274;7.128;2022-11-15T00:51:28;10.98;;;7.60;;
12151;SDS011;6139;51.274;7.128;2022-11-15T00:52:48;10.07;;;6.82;;
12151;SDS011;6139;51.274;7.128;2022-11-15T00:54:09;9.95;;;7.80;;
12151;SDS011;6139;51.274;7.128;2022-11-15T00:55:29;9.70;;;7.43;;
12151;SDS011;6139;51.274;7.128;2022-11-15T00:56:49;9.77;;;8.00;;
12151;SDS011;6139;51.274;7.128;2022-11-15T00:58:10;9.95;;;7.43;;
12151;SDS011;6139;51.274;7.128;2022-11-15T00:59:31;8.45;;;7.18;;
12151;SDS011;6139;51.274;7.128;2022-11-15T01:00:50;8.00;;;7.20;;
12151;SDS011;6139;51.274;7.128;2022-11-15T01:02:10;9.57;;;7.35;;
12151;SDS011;6139;51.274;7.128;2022-11-15T01:03:31;9.85;;;7.50;;
12151;SDS011;6139;51.274;7.128;2022-11-15T01:04:51;9.40;;;7.05;;
12151;SDS011;6139;51.274;7.128;2022-11-15T01:06:12;10.10;;;7.30;;
12151;SDS011;6139;51.274;7.128;2022-11-15T01:07:32;11.17;;;7.10;;
12151;SDS011;6139;51.274;7.128;2022-11-15T01:08:54;9.30;;;7.20;;
12151;SDS011;6139;51.274;7.128;2022-11-15T01:10:15;9.63;;;7.32;;
12151;SDS011;6139;51.274;7.128;2022-11-15T01:11:34;8.25;;;7.13;;
12151;SDS011;6139;51.274;7.128;2022-11-15T01:12:55;10.55;;;7.55;;
12151;SDS011;6139;51.274;7.128;2022-11-15T01:14:14;8.65;;;7.53;;
12151;SDS011;6139;51.274;7.128;2022-11-15T01:15:38;9.85;;;6.97;;
12151;SDS011;6139;51.274;7.128;2022-11-15T01:16:59;9.23;;;7.30;;
12151;SDS011;6139;51.274;7.128;2022-11-15T01:18:20;7.80;;;7.00;;
12151;SDS011;6139;51.274;7.128;2022-11-15T01:19:39;8.63;;;6.85;;
12151;SDS011;6139;51.274;7.128;2022-11-15T01:21:04;8.63;;;7.43;;
12151;SDS011;6139;51.274;7.128;2022-11-15T01:22:24;9.10;;;7.00;;
12151;SDS011;6139;51.274;7.128;2022-11-15T01:23:45;7.33;;;6.63;;
12151;SDS011;6139;51.274;7.128;2022-11-15T01:25:06;10.45;;;6.85;;
12151;SDS011;6139;51.274;7.128;2022-11-15T01:26:26;9.00;;;6.95;;
12151;SDS011;6139;51.274;7.128;2022-11-15T01:27:47;7.70;;;6.32;;
12151;SDS011;6139;51.274;7.128;2022-11-15T01:29:08;7.72;;;6.90;;
12151;SDS011;6139;51.274;7.128;2022-11-15T01:30:27;8.88;;;6.57;;
12151;SDS011;6139;51.274;7.128;2022-11-15T01:31:48;8.05;;;6.63;;
12151;SDS011;6139;51.274;7.128;2022-11-15T01:33:07;7.22;;;6.38;;
12151;SDS011;6139;51.274;7.128;2022-11-15T01:34:28;8.38;;;6.78;;
12151;SDS011;6139;51.274;7.128;2022-11-15T01:35:48;9.57;;;6.55;;
12151;SDS011;6139;51.274;7.128;2022-11-15T01:37:08;8.27;;;6.38;;
12151;SDS011;6139;51.274;7.128;2022-11-15T01:38:28;9.82;;;6.30;;
12151;SDS011;6139;51.274;7.128;2022-11-15T01:39:49;7.45;;;6.22;;
12151;SDS011;6139;51.274;7.128;2022-11-15T01:41:15;9.82;;;7.07;;
12151;SDS011;6139;51.274;7.128;2022-11-15T01:42:36;7.22;;;6.53;;
12151;SDS011;6139;51.274;7.128;2022-11-15T01:43:57;9.13;;;6.88;;
12151;SDS011;6139;51.274;7.128;2022-11-15T01:45:33;8.80;;;7.05;;
12151;SDS011;6139;51.274;7.128;2022-11-15T01:46:52;10.52;;;7.00;;
12151;SDS011;6139;51.274;7.128;2022-11-15T01:48:13;8.95;;;6.70;;
12151;SDS011;6139;51.274;7.128;2022-11-15T01:49:35;8.95;;;6.88;;
12151;SDS011;6139;51.274;7.128;2022-11-15T01:50:57;8.68;;;6.72;;
12151;SDS011;6139;51.274;7.128;2022-11-15T01:52:20;10.25;;;6.88;;
12151;SDS011;6139;51.274;7.128;2022-11-15T01:53:42;7.88;;;6.75;;
12151;SDS011;6139;51.274;7.128;2022-11-15T01:55:07;9.07;;;6.82;;
12151;SDS011;6139;51.274;7.128;2022-11-15T01:56:32;10.35;;;6.65;;
12151;SDS011;6139;51.274;7.128;2022-11-15T01:58:01;11.23;;;7.13;;
12151;SDS011;6139;51.274;7.128;2022-11-15T01:59:24;8.80;;;6.20;;
12151;SDS011;6139;51.274;7.128;2022-11-15T02:00:44;7.40;;;6.57;;
12151;SDS011;6139;51.274;7.128;2022-11-15T02:02:06;7.97;;;6.20;;
12151;SDS011;6139;51.274;7.128;2022-11-15T02:03:28;7.53;;;6.60;;
12151;SDS011;6139;51.274;7.128;2022-11-15T02:04:54;8.82;;;6.88;;
12151;SDS011;6139;51.274;7.128;2022-11-15T02:06:15;8.35;;;6.88;;
12151;SDS011;6139;51.274;7.128;2022-11-15T02:07:36;10.20;;;6.90;;
12151;SDS011;6139;51.274;7.128;2022-11-15T02:08:55;8.38;;;6.85;;
12151;SDS011;6139;51.274;7.128;2022-11-15T02:10:18;9.32;;;7.30;;
12151;SDS011;6139;51.274;7.128;2022-11-15T02:11:41;9.60;;;7.07;;
12151;SDS011;6139;51.274;7.128;2022-11-15T02:13:02;10.75;;;7.43;;
12151;SDS011;6139;51.274;7.128;2022-11-15T02:14:23;10.82;;;7.15;;
12151;SDS011;6139;51.274;7.128;2022-11-15T02:15:48;8.30;;;6.78;;
12151;SDS011;6139;51.274;7.128;2022-11-15T02:17:23;9.75;;;6.90;;
12151;SDS011;6139;51.274;7.128;2022-11-15T02:18:52;10.45;;;7.07;;
12151;SDS011;6139;51.274;7.128;2022-11-15T02:20:32;9.63;;;6.97;;
12151;SDS011;6139;51.274;7.128;2022-11-15T02:22:04;8.75;;;6.85;;
12151;SDS011;6139;51.274;7.128;2022-11-15T02:23:47;9.63;;;7.30;;
12151;SDS011;6139;51.274;7.128;2022-11-15T02:25:25;10.27;;;7.43;;
12151;SDS011;6139;51.274;7.128;2022-11-15T02:27:16;7.97;;;6.65;;
12151;SDS011;6139;51.274;7.128;2022-11-15T02:29:05;8.15;;;7.13;;
12151;SDS011;6139;51.274;7.128;2022-11-15T02:30:33;9.38;;;7.68;;
12151;SDS011;6139;51.274;7.128;2022-11-15T02:31:58;8.90;;;7.25;;
12151;SDS011;6139;51.274;7.128;2022-11-15T02:33:26;13.50;;;7.25;;
12151;SDS011;6139;51.274;7.128;2022-11-15T02:34:54;11.35;;;7.50;;
12151;SDS011;6139;51.274;7.128;2022-11-15T02:36:22;10.80;;;7.68;;
12151;SDS011;6139;51.274;7.128;2022-11-15T02:37:54;10.20;;;8.15;;
12151;SDS011;6139;51.274;7.128;2022-11-15T02:39:18;8.10;;;7.18;;
12151;SDS011;6139;51.274;7.128;2022-11-15T02:40:46;10.07;;;7.88;;
12151;SDS011;6139;51.274;7.128;2022-11-15T02:42:14;9.63;;;7.93;;
12151;SDS011;6139;51.274;7.128;2022-11-15T02:43:59;8.13;;;7.32;;
12151;SDS011;6139;51.274;7.128;2022-11-15T02:45:23;10.15;;;8.02;;
12151;SDS011;6139;51.274;7.128;2022-11-15T02:46:49;10.10;;;7.40;;
12151;SDS011;6139;51.274;7.128;2022-11-15T02:48:30;9.15;;;8.10;;
12151;SDS011;6139;51.274;7.128;2022-11-15T02:49:52;9.93;;;7.63;;
12151;SDS011;6139;51.274;7.128;2022-11-15T02:51:15;12.32;;;7.53;;
12151;SDS011;6139;51.274;7.128;2022-11-15T02:52:36;9.45;;;7.50;;
12151;SDS011;6139;51.274;7.128;2022-11-15T02:53:57;8.35;;;7.35;;
12151;SDS011;6139;51.274;7.128;2022-11-15T02:55:26;11.82;;;7.32;;
12151;SDS011;6139;51.274;7.128;2022-11-15T02:56:49;10.10;;;7.75;;
12151;SDS011;6139;51.274;7.128;2022-11-15T02:58:25;7.95;;;7.15;;
12151;SDS011;6139;51.274;7.128;2022-11-15T03:00:08;9.10;;;7.32;;
12151;SDS011;6139;51.274;7.128;2022-11-15T03:01:34;8.65;;;7.53;;
12151;SDS011;6139;51.274;7.128;2022-11-15T03:03:11;10.35;;;7.72;;
12151;SDS011;6139;51.274;7.128;2022-11-15T03:04:41;10.65;;;7.82;;
12151;SDS011;6139;51.274;7.128;2022-11-15T03:06:14;9.48;;;7.70;;
12151;SDS011;6139;51.274;7.128;2022-11-15T03:07:43;8.95;;;7.30;;
12151;SDS011;6139;51.274;7.128;2022-11-15T03:09:10;9.63;;;6.82;;
12151;SDS011;6139;51.274;7.128;2022-11-15T03:10:42;8.57;;;7.03;;
12151;SDS011;6139;51.274;7.128;2022-11-15T03:12:06;13.90;;;7.55;;
12151;SDS011;6139;51.274;7.128;2022-11-15T03:13:30;8.98;;;7.68;;
12151;SDS011;6139;51.274;7.128;2022-11-15T03:14:56;9.68;;;7.13;;
12151;SDS011;6139;51.274;7.128;2022-11-15T03:16:20;8.00;;;7.20;;
12151;SDS011;6139;51.274;7.128;2022-11-15T03:17:47;9.93;;;6.72;;
12151;SDS011;6139;51.274;7.128;2022-11-15T03:19:16;8.95;;;6.85;;
12151;SDS011;6139;51.274;7.128;2022-11-15T03:20:39;10.38;;;6.70;;
12151;SDS011;6139;51.274;7.128;2022-11-15T03:22:03;10.23;;;6.72;;
12151;SDS011;6139;51.274;7.128;2022-11-15T03:23:25;10.68;;;6.68;;
12151;SDS011;6139;51.274;7.128;2022-11-15T03:24:50;8.80;;;6.45;;
12151;SDS011;6139;51.274;7.128;2022-11-15T03:26:13;8.80;;;6.90;;
12151;SDS011;6139;51.274;7.128;2022-11-15T03:27:38;7.88;;;6.47;;
12151;SDS011;6139;51.274;7.128;2022-11-15T03:29:01;10.20;;;6.82;;
12151;SDS011;6139;51.274;7.128;2022-11-15T03:30:26;7.47;;;6.68;;
12151;SDS011;6139;51.274;7.128;2022-11-15T03:31:49;7.20;;;6.45;;
12151;SDS011;6139;51.274;7.128;2022-11-15T03:33:12;7.93;;;6.80;;
12151;SDS011;6139;51.274;7.128;2022-11-15T03:34:35;8.18;;;6.90;;
12151;SDS011;6139;51.274;7.128;2022-11-15T03:35:58;11.52;;;7.15;;
12151;SDS011;6139;51.274;7.128;2022-11-15T03:37:20;7.75;;;6.93;;
12151;SDS011;6139;51.274;7.128;2022-11-15T03:38:43;7.60;;;6.78;;
12151;SDS011;6139;51.274;7.128;2022-11-15T03:40:05;7.78;;;6.57;;
12151;SDS011;6139;51.274;7.128;2022-11-15T03:41:27;7.03;;;6.30;;
12151;SDS011;6139;51.274;7.128;2022-11-15T03:42:54;7.35;;;6.40;;
12151;SDS011;6139;51.274;7.128;2022-11-15T03:44:22;7.18;;;6.18;;
12151;SDS011;6139;51.274;7.128;2022-11-15T03:45:58;8.82;;;6.45;;
12151;SDS011;6139;51.274;7.128;2022-11-15T03:47:23;10.40;;;6.95;;
12151;SDS011;6139;51.274;7.128;2022-11-15T03:48:48;8.93;;;7.05;;
12151;SDS011;6139;51.274;7.128;2022-11-15T03:50:14;8.10;;;6.10;;
12151;SDS011;6139;51.274;7.128;2022-11-15T03:51:36;7.75;;;6.35;;
12151;SDS011;6139;51.274;7.128;2022-11-15T03:52:56;9.07;;;6.88;;
12151;SDS011;6139;51.274;7.128;2022-11-15T03:54:18;8.82;;;6.10;;
12151;SDS011;6139;51.274;7.128;2022-11-15T03:55:38;7.72;;;6.88;;
12151;SDS011;6139;51.274;7.128;2022-11-15T03:56:59;9.77;;;6.15;;
12151;SDS011;6139;51.274;7.128;2022-11-15T03:58:19;8.32;;;6.82;;
12151;SDS011;6139;51.274;7.128;2022-11-15T03:59:39;7.53;;;5.72;;
12151;SDS011;6139;51.274;7.128;2022-11-15T04:00:59;7.93;;;6.20;;
12151;SDS011;6139;51.274;7.128;2022-11-15T04:02:20;6.57;;;5.78;;
12151;SDS011;6139;51.274;7.128;2022-11-15T04:03:40;8.27;;;6.57;;
12151;SDS011;6139;51.274;7.128;2022-11-15T04:05:01;7.25;;;5.97;;
12151;SDS011;6139;51.274;7.128;2022-11-15T04:06:22;8.38;;;5.90;;
12151;SDS011;6139;51.274;7.128;2022-11-15T04:07:43;7.53;;;5.78;;
12151;SDS011;6139;51.274;7.128;2022-11-15T04:09:03;7.35;;;5.93;;
12151;SDS011;6139;51.274;7.128;2022-11-15T04:10:24;8.60;;;5.88;;
12151;SDS011;6139;51.274;7.128;2022-11-15T04:11:45;8.48;;;5.88;;
12151;SDS011;6139;51.274;7.128;2022-11-15T04:13:04;7.15;;;5.90;;
12151;SDS011;6139;51.274;7.128;2022-11-15T04:14:24;7.20;;;6.32;;
12151;SDS011;6139;51.274;7.128;2022-11-15T04:15:45;7.85;;;5.80;;
12151;SDS011;6139;51.274;7.128;2022-11-15T04:17:04;6.78;;;6.10;;
12151;SDS011;6139;51.274;7.128;2022-11-15T04:18:25;7.55;;;5.90;;
12151;SDS011;6139;51.274;7.128;2022-11-15T04:19:46;6.95;;;5.88;;
12151;SDS011;6139;51.274;7.128;2022-11-15T04:21:25;6.90;;;5.85;;
12151;SDS011;6139;51.274;7.128;2022-11-15T04:23:04;6.55;;;5.85;;
12151;SDS011;6139;51.274;7.128;2022-11-15T04:24:59;7.32;;;5.80;;
12151;SDS011;6139;51.274;7.128;2022-11-15T04:26:21;7.45;;;6.18;;
12151;SDS011;6139;51.274;7.128;2022-11-15T04:27:42;6.50;;;5.78;;
12151;SDS011;6139;51.274;7.128;2022-11-15T04:29:02;7.07;;;5.80;;
12151;SDS011;6139;51.274;7.128;2022-11-15T04:30:41;10.07;;;6.07;;
12151;SDS011;6139;51.274;7.128;2022-11-15T04:32:01;8.75;;;6.70;;
12151;SDS011;6139;51.274;7.128;2022-11-15T04:33:22;10.18;;;6.63;;
12151;SDS011;6139;51.274;7.128;2022-11-15T04:34:42;7.60;;;6.78;;
12151;SDS011;6139;51.274;7.128;2022-11-15T04:36:02;8.13;;;6.60;;
12151;SDS011;6139;51.274;7.128;2022-11-15T04:37:42;7.57;;;6.40;;
12151;SDS011;6139;51.274;7.128;2022-11-15T04:39:03;7.78;;;6.50;;
12151;SDS011;6139;51.274;7.128;2022-11-15T04:40:22;7.07;;;6.35;;
12151;SDS011;6139;51.274;7.128;2022-11-15T04:41:43;8.43;;;6.95;;
12151;SDS011;6139;51.274;7.128;2022-11-15T04:43:03;7.82;;;6.93;;
12151;SDS011;6139;51.274;7.128;2022-11-15T04:44:24;7.32;;;6.45;;
12151;SDS011;6139;51.274;7.128;2022-11-15T04:45:43;7.68;;;6.47;;
12151;SDS011;6139;51.274;7.128;2022-11-15T04:47:04;7.85;;;6.72;;
12151;SDS011;6139;51.274;7.128;2022-11-15T04:48:25;8.27;;;7.07;;
12151;SDS011;6139;51.274;7.128;2022-11-15T04:49:45;7.85;;;6.80;;
12151;SDS011;6139;51.274;7.128;2022-11-15T04:51:06;9.60;;;7.22;;
12151;SDS011;6139;51.274;7.128;2022-11-15T04:52:26;12.70;;;7.50;;
12151;SDS011;6139;51.274;7.128;2022-11-15T04:53:48;8.18;;;7.10;;
12151;SDS011;6139;51.274;7.128;2022-11-15T04:55:08;8.70;;;6.97;;
12151;SDS011;6139;51.274;7.128;2022-11-15T04:56:28;8.27;;;7.47;;
12151;SDS011;6139;51.274;7.128;2022-11-15T04:57:56;8.63;;;7.30;;
12151;SDS011;6139;51.274;7.128;2022-11-15T04:59:17;8.68;;;7.75;;
12151;SDS011;6139;51.274;7.128;2022-11-15T05:00:37;8.25;;;6.88;;
12151;SDS011;6139;51.274;7.128;2022-11-15T05:01:58;9.65;;;7.45;;
12151;SDS011;6139;51.274;7.128;2022-11-15T05:03:19;9.10;;;6.97;;
12151;SDS011;6139;51.274;7.128;2022-11-15T05:04:57;11.52;;;7.70;;
12151;SDS011;6139;51.274;7.128;2022-11-15T05:06:17;8.07;;;7.28;;
12151;SDS011;6139;51.274;7.128;2022-11-15T05:07:38;8.20;;;6.72;;
12151;SDS011;6139;51.274;7.128;2022-11-15T05:09:00;8.95;;;7.47;;
12151;SDS011;6139;51.274;7.128;2022-11-15T05:10:19;9.43;;;7.70;;
12151;SDS011;6139;51.274;7.128;2022-11-15T05:11:40;7.80;;;7.03;;
12151;SDS011;6139;51.274;7.128;2022-11-15T05:13:00;8.93;;;7.47;;
12151;SDS011;6139;51.274;7.128;2022-11-15T05:14:21;8.20;;;6.97;;
12151;SDS011;6139;51.274;7.128;2022-11-15T05:15:41;8.38;;;6.50;;
12151;SDS011;6139;51.274;7.128;2022-11-15T05:17:01;9.48;;;7.30;;
12151;SDS011;6139;51.274;7.128;2022-11-15T05:18:22;8.00;;;6.93;;
12151;SDS011;6139;51.274;7.128;2022-11-15T05:19:43;9.98;;;7.03;;
12151;SDS011;6139;51.274;7.128;2022-11-15T05:21:04;8.02;;;7.22;;
12151;SDS011;6139;51.274;7.128;2022-11-15T05:22:26;7.35;;;6.60;;
12151;SDS011;6139;51.274;7.128;2022-11-15T05:23:47;7.60;;;6.90;;
12151;SDS011;6139;51.274;7.128;2022-11-15T05:25:08;8.40;;;7.50;;
12151;SDS011;6139;51.274;7.128;2022-11-15T05:26:28;7.68;;;6.93;;
12151;SDS011;6139;51.274;7.128;2022-11-15T05:27:49;7.90;;;7.00;;
12151;SDS011;6139;51.274;7.128;2022-11-15T05:29:09;8.15;;;6.72;;
12151;SDS011;6139;51.274;7.128;2022-11-15T05:30:31;7.70;;;6.97;;
12151;SDS011;6139;51.274;7.128;2022-11-15T05:31:50;7.80;;;7.00;;
12151;SDS011;6139;51.274;7.128;2022-11-15T05:33:11;7.25;;;6.55;;
12151;SDS011;6139;51.274;7.128;2022-11-15T05:34:32;6.93;;;6.22;;
12151;SDS011;6139;51.274;7.128;2022-11-15T05:35:54;7.75;;;6.55;;
12151;SDS011;6139;51.274;7.128;2022-11-15T05:37:18;7.82;;;6.72;;
12151;SDS011;6139;51.274;7.128;2022-11-15T05:38:39;7.40;;;6.70;;
12151;SDS011;6139;51.274;7.128;2022-11-15T05:40:00;7.57;;;6.60;;
12151;SDS011;6139;51.274;7.128;2022-11-15T05:41:24;7.50;;;6.80;;
12151;SDS011;6139;51.274;7.128;2022-11-15T05:42:50;7.20;;;6.50;;
12151;SDS011;6139;51.274;7.128;2022-11-15T05:44:11;6.55;;;5.95;;
12151;SDS011;6139;51.274;7.128;2022-11-15T05:45:34;6.10;;;5.53;;
12151;SDS011;6139;51.274;7.128;2022-11-15T05:46:56;7.05;;;6.35;;
12151;SDS011;6139;51.274;7.128;2022-11-15T05:48:16;7.03;;;5.85;;
12151;SDS011;6139;51.274;7.128;2022-11-15T05:49:37;6.25;;;5.65;;
12151;SDS011;6139;51.274;7.128;2022-11-15T05:51:01;6.30;;;5.50;;
12151;SDS011;6139;51.274;7.128;2022-11-15T05:52:24;6.40;;;5.70;;
12151;SDS011;6139;51.274;7.128;2022-11-15T05:53:49;6.13;;;5.53;;
12151;SDS011;6139;51.274;7.128;2022-11-15T05:55:11;6.82;;;5.43;;
12151;SDS011;6139;51.274;7.128;2022-11-15T05:56:34;6.75;;;5.70;;
12151;SDS011;6139;51.274;7.128;2022-11-15T05:57:55;6.03;;;5.28;;
12151;SDS011;6139;51.274;7.128;2022-11-15T05:59:15;5.57;;;5.07;;
12151;SDS011;6139;51.274;7.128;2022-11-15T06:00:36;5.90;;;5.38;;
12151;SDS011;6139;51.274;7.128;2022-11-15T06:01:56;5.95;;;5.32;;
12151;SDS011;6139;51.274;7.128;2022-11-15T06:03:17;5.93;;;4.88;;
12151;SDS011;6139;51.274;7.128;2022-11-15T06:04:38;5.53;;;5.03;;
12151;SDS011;6139;51.274;7.128;2022-11-15T06:05:58;6.13;;;5.20;;
12151;SDS011;6139;51.274;7.128;2022-11-15T06:07:20;6.97;;;5.25;;
12151;SDS011;6139;51.274;7.128;2022-11-15T06:08:42;6.35;;;4.70;;
12151;SDS011;6139;51.274;7.128;2022-11-15T06:10:02;5.22;;;4.72;;
12151;SDS011;6139;51.274;7.128;2022-11-15T06:11:23;5.20;;;4.72;;
12151;SDS011;6139;51.274;7.128;2022-11-15T06:12:45;7.20;;;4.57;;
12151;SDS011;6139;51.274;7.128;2022-11-15T06:14:06;4.78;;;4.38;;
12151;SDS011;6139;51.274;7.128;2022-11-15T06:15:27;4.70;;;4.30;;
12151;SDS011;6139;51.274;7.128;2022-11-15T06:16:47;5.03;;;4.10;;
12151;SDS011;6139;51.274;7.128;2022-11-15T06:18:08;4.85;;;4.25;;
12151;SDS011;6139;51.274;7.128;2022-11-15T06:19:28;4.60;;;4.07;;
12151;SDS011;6139;51.274;7.128;2022-11-15T06:22:40;4.57;;;4.15;;
12151;SDS011;6139;51.274;7.128;2022-11-15T06:24:00;4.88;;;4.13;;
12151;SDS011;6139;51.274;7.128;2022-11-15T06:25:20;4.45;;;4.05;;
12151;SDS011;6139;51.274;7.128;2022-11-15T06:26:41;4.28;;;3.88;;
12151;SDS011;6139;51.274;7.128;2022-11-15T06:28:03;4.93;;;4.43;;
12151;SDS011;6139;51.274;7.128;2022-11-15T06:29:22;5.10;;;4.60;;
12151;SDS011;6139;51.274;7.128;2022-11-15T06:30:43;4.97;;;4.28;;
12151;SDS011;6139;51.274;7.128;2022-11-15T06:32:04;5.35;;;4.80;;
12151;SDS011;6139;51.274;7.128;2022-11-15T06:33:25;7.47;;;4.50;;
12151;SDS011;6139;51.274;7.128;2022-11-15T06:34:45;4.65;;;4.18;;
12151;SDS011;6139;51.274;7.128;2022-11-15T06:36:07;5.10;;;4.07;;
12151;SDS011;6139;51.274;7.128;2022-11-15T06:37:29;4.78;;;4.13;;
12151;SDS011;6139;51.274;7.128;2022-11-15T06:38:49;6.22;;;4.30;;
12151;SDS011;6139;51.274;7.128;2022-11-15T06:40:10;6.85;;;4.28;;
12151;SDS011;6139;51.274;7.128;2022-11-15T06:41:33;4.30;;;3.90;;
12151;SDS011;6139;51.274;7.128;2022-11-15T06:42:56;4.57;;;4.13;;
12151;SDS011;6139;51.274;7.128;2022-11-15T06:44:20;5.63;;;4.00;;
12151;SDS011;6139;51.274;7.128;2022-11-15T06:45:41;4.35;;;3.95;;
12151;SDS011;6139;51.274;7.128;2022-11-15T06:47:01;4.45;;;4.05;;
12151;SDS011;6139;51.274;7.128;2022-11-15T06:48:21;4.05;;;3.65;;
12151;SDS011;6139;51.274;7.128;2022-11-15T06:49:42;5.55;;;4.13;;
12151;SDS011;6139;51.274;7.128;2022-11-15T06:51:03;4.22;;;3.78;;
12151;SDS011;6139;51.274;7.128;2022-11-15T06:52:24;5.85;;;4.05;;
12151;SDS011;6139;51.274;7.128;2022-11-15T06:53:45;4.22;;;3.67;;
12151;SDS011;6139;51.274;7.128;2022-11-15T06:55:05;4.65;;;3.67;;
12151;SDS011;6139;51.274;7.128;2022-11-15T06:56:27;3.60;;;3.30;;
12151;SDS011;6139;51.274;7.128;2022-11-15T06:57:48;4.70;;;4.10;;
12151;SDS011;6139;51.274;7.128;2022-11-15T06:59:09;4.20;;;3.80;;
12151;SDS011;6139;51.274;7.128;2022-11-15T07:00:31;4.18;;;3.42;;
12151;SDS011;6139;51.274;7.128;2022-11-15T07:01:52;4.28;;;3.10;;
12151;SDS011;6139;51.274;7.128;2022-11-15T07:03:12;4.78;;;3.17;;
12151;SDS011;6139;51.274;7.128;2022-11-15T07:04:33;3.78;;;3.25;;
12151;SDS011;6139;51.274;7.128;2022-11-15T07:05:55;3.30;;;3.00;;
12151;SDS011;6139;51.274;7.128;2022-11-15T07:07:16;3.22;;;2.95;;
12151;SDS011;6139;51.274;7.128;2022-11-15T07:08:36;3.30;;;3.00;;
12151;SDS011;6139;51.274;7.128;2022-11-15T07:09:57;4.03;;;3.00;;
12151;SDS011;6139;51.274;7.128;2022-11-15T07:11:18;3.83;;;3.03;;
12151;SDS011;6139;51.274;7.128;2022-11-15T07:12:39;3.40;;;3.10;;
12151;SDS011;6139;51.274;7.128;2022-11-15T07:13:59;3.67;;;3.22;;
12151;SDS011;6139;51.274;7.128;2022-11-15T07:15:21;4.22;;;3.13;;
12151;SDS011;6139;51.274;7.128;2022-11-15T07:16:44;3.90;;;2.95;;
12151;SDS011;6139;51.274;7.128;2022-11-15T07:18:05;3.60;;;3.30;;
12151;SDS011;6139;51.274;7.128;2022-11-15T07:19:26;4.35;;;3.75;;
12151;SDS011;6139;51.274;7.128;2022-11-15T07:20:46;3.25;;;3.00;;
12151;SDS011;6139;51.274;7.128;2022-11-15T07:22:07;4.35;;;3.20;;
12151;SDS011;6139;51.274;7.128;2022-11-15T07:23:28;6.55;;;3.35;;
12151;SDS011;6139;51.274;7.128;2022-11-15T07:24:48;3.85;;;3.28;;
12151;SDS011;6139;51.274;7.128;2022-11-15T07:26:08;4.63;;;3.40;;
12151;SDS011;6139;51.274;7.128;2022-11-15T07:27:29;3.20;;;2.90;;
12151;SDS011;6139;51.274;7.128;2022-11-15T07:28:48;3.20;;;2.90;;
12151;SDS011;6139;51.274;7.128;2022-11-15T07:30:10;3.40;;;3.10;;
12151;SDS011;6139;51.274;7.128;2022-11-15T07:31:30;3.95;;;2.92;;
12151;SDS011;6139;51.274;7.128;2022-11-15T07:32:53;4.60;;;3.13;;
12151;SDS011;6139;51.274;7.128;2022-11-15T07:34:14;3.58;;;3.10;;
12151;SDS011;6139;51.274;7.128;2022-11-15T07:35:35;3.70;;;3.20;;
12151;SDS011;6139;51.274;7.128;2022-11-15T07:36:55;3.90;;;3.00;;
12151;SDS011;6139;51.274;7.128;2022-11-15T07:38:16;5.55;;;2.80;;
12151;SDS011;6139;51.274;7.128;2022-11-15T07:39:38;3.60;;;2.80;;
12151;SDS011;6139;51.274;7.128;2022-11-15T07:41:00;4.45;;;2.85;;
12151;SDS011;6139;51.274;7.128;2022-11-15T07:42:23;3.85;;;2.80;;
12151;SDS011;6139;51.274;7.128;2022-11-15T07:44:01;2.80;;;2.55;;
12151;SDS011;6139;51.274;7.128;2022-11-15T07:45:22;3.38;;;2.75;;
12151;SDS011;6139;51.274;7.128;2022-11-15T07:46:44;5.13;;;3.20;;
12151;SDS011;6139;51.274;7.128;2022-11-15T07:48:06;3.47;;;2.80;;
12151;SDS011;6139;51.274;7.128;2022-11-15T07:49:27;2.95;;;2.75;;
12151;SDS011;6139;51.274;7.128;2022-11-15T07:50:48;3.17;;;2.80;;
12151;SDS011;6139;51.274;7.128;2022-11-15T07:52:08;4.07;;;3.00;;
12151;SDS011;6139;51.274;7.128;2022-11-15T07:53:29;2.60;;;2.40;;
12151;SDS011;6139;51.274;7.128;2022-11-15T07:54:50;3.33;;;2.80;;
12151;SDS011;6139;51.274;7.128;2022-11-15T07:56:11;2.90;;;2.60;;
12151;SDS011;6139;51.274;7.128;2022-11-15T07:57:32;2.95;;;2.38;;
12151;SDS011;6139;51.274;7.128;2022-11-15T07:58:52;3.17;;;2.58;;
12151;SDS011;6139;51.274;7.128;2022-11-15T08:00:13;4.90;;;2.50;;
12151;SDS011;6139;51.274;7.128;2022-11-15T08:01:35;3.92;;;2.25;;
12151;SDS011;6139;51.274;7.128;2022-11-15T08:03:01;2.60;;;2.40;;
12151;SDS011;6139;51.274;7.128;2022-11-15T08:04:23;2.83;;;2.50;;
12151;SDS011;6139;51.274;7.128;2022-11-15T08:05:49;2.75;;;2.55;;
12151;SDS011;6139;51.274;7.128;2022-11-15T08:07:12;3.33;;;2.40;;
12151;SDS011;6139;51.274;7.128;2022-11-15T08:08:33;4.30;;;2.75;;
12151;SDS011;6139;51.274;7.128;2022-11-15T08:09:53;2.88;;;2.35;;
12151;SDS011;6139;51.274;7.128;2022-11-15T08:11:14;4.88;;;2.60;;
12151;SDS011;6139;51.274;7.128;2022-11-15T08:12:35;2.63;;;2.42;;
12151;SDS011;6139;51.274;7.128;2022-11-15T08:13:55;3.55;;;2.53;;
12151;SDS011;6139;51.274;7.128;2022-11-15T08:15:16;2.97;;;2.78;;
12151;SDS011;6139;51.274;7.128;2022-11-15T08:16:37;5.13;;;3.20;;
12151;SDS011;6139;51.274;7.128;2022-11-15T08:17:58;4.72;;;2.42;;
12151;SDS011;6139;51.274;7.128;2022-11-15T08:19:22;3.05;;;2.60;;
12151;SDS011;6139;51.274;7.128;2022-11-15T08:20:43;2.38;;;2.17;;
12151;SDS011;6139;51.274;7.128;2022-11-15T08:22:04;3.97;;;2.03;;
12151;SDS011;6139;51.274;7.128;2022-11-15T08:23:24;2.40;;;2.20;;
12151;SDS011;6139;51.274;7.128;2022-11-15T08:24:45;2.78;;;2.42;;
12151;SDS011;6139;51.274;7.128;2022-11-15T08:26:05;2.40;;;2.20;;
12151;SDS011;6139;51.274;7.128;2022-11-15T08:27:26;2.65;;;2.10;;